createdAt,value
2018-05-06T00:01:57.425Z,71.90
2018-05-06T00:04:23.360Z,71.10
2018-05-06T00:06:49.287Z,70.20
2018-05-06T00:09:15.191Z,70.80
2018-05-06T00:11:41.109Z,70.70
2018-05-06T00:14:07.001Z,71.50
2018-05-06T00:16:33.670Z,71.00
2018-05-06T00:18:59.571Z,70.90
2018-05-06T00:21:25.489Z,72.30
2018-05-06T00:23:52.117Z,70.70
2018-05-06T00:26:18.831Z,71.60
2018-05-06T00:28:44.748Z,71.60
2018-05-06T00:31:10.638Z,71.30
2018-05-06T00:33:36.640Z,72.10
2018-05-06T00:36:02.466Z,71.50
2018-05-06T00:38:28.376Z,72.50
2018-05-06T00:40:54.322Z,71.40
2018-05-06T00:43:20.220Z,71.80
2018-05-06T00:45:46.133Z,71.90
2018-05-06T00:48:12.030Z,70.90
2018-05-06T00:50:38.134Z,73.10
2018-05-06T00:53:04.038Z,74.30
2018-05-06T00:55:29.919Z,72.80
2018-05-06T00:57:56.571Z,73.20
2018-05-06T01:00:22.891Z,73.20
2018-05-06T01:02:48.789Z,73.60
2018-05-06T01:05:15.443Z,74.10
2018-05-06T01:07:42.088Z,74.40
2018-05-06T01:10:08.001Z,74.40
2018-05-06T01:12:34.638Z,72.70
2018-05-06T01:15:01.279Z,72.90
2018-05-06T01:17:27.923Z,74.00
2018-05-06T01:19:53.825Z,74.00
2018-05-06T01:22:20.473Z,72.80
2018-05-06T01:24:47.091Z,73.60
2018-05-06T01:27:12.980Z,73.60
2018-05-06T01:29:38.899Z,74.00
2018-05-06T01:32:04.781Z,73.90
2018-05-06T01:34:30.690Z,73.10
2018-05-06T01:36:57.312Z,73.20
2018-05-06T01:39:24.048Z,73.50
2018-05-06T01:41:50.709Z,74.10
2018-05-06T01:44:17.349Z,73.80
2018-05-06T01:46:44.001Z,73.40
2018-05-06T01:49:09.878Z,73.40
2018-05-06T01:51:35.789Z,74.30
2018-05-06T01:54:01.685Z,74.60
2018-05-06T01:56:27.560Z,75.90
2018-05-06T01:58:54.185Z,75.90
2018-05-06T02:01:20.094Z,76.00
2018-05-06T02:03:45.972Z,74.70
2018-05-06T02:06:11.845Z,74.70
2018-05-06T02:08:38.485Z,74.20
2018-05-06T02:11:05.116Z,74.60
2018-05-06T02:13:31.004Z,74.50
2018-05-06T02:15:56.902Z,75.20
2018-05-06T02:18:22.783Z,75.50
2018-05-06T02:20:49.430Z,76.10
2018-05-06T02:23:16.044Z,76.70
2018-05-06T02:25:41.989Z,76.70
2018-05-06T02:28:08.634Z,75.70
2018-05-06T02:30:35.260Z,77.90
2018-05-06T02:33:01.913Z,77.10
2018-05-06T02:35:27.857Z,77.00
2018-05-06T02:37:54.437Z,77.80
2018-05-06T02:40:20.337Z,77.20
2018-05-06T02:42:46.226Z,77.30
2018-05-06T02:45:12.148Z,78.70
2018-05-06T02:47:38.041Z,79.20
2018-05-06T02:50:04.667Z,79.50
2018-05-06T02:52:30.568Z,79.60
2018-05-06T02:54:56.465Z,79.90
2018-05-06T02:57:22.361Z,79.60
2018-05-06T02:59:48.241Z,79.50
2018-05-06T03:02:14.132Z,80.60
2018-05-06T03:04:40.025Z,79.80
2018-05-06T03:07:07.435Z,80.40
2018-05-06T03:09:33.330Z,80.40
2018-05-06T03:11:59.232Z,80.70
2018-05-06T03:14:25.130Z,81.60
2018-05-06T03:16:51.038Z,82.30
2018-05-06T03:19:17.702Z,83.00
2018-05-06T03:21:43.631Z,82.90
2018-05-06T03:24:09.508Z,82.70
2018-05-06T03:26:36.146Z,84.30
2018-05-06T03:29:02.784Z,84.20
2018-05-06T03:31:29.416Z,84.00
2018-05-06T03:33:56.077Z,84.70
2018-05-06T03:36:22.720Z,85.40
2018-05-06T03:38:48.604Z,85.40
2018-05-06T03:41:14.495Z,85.40
2018-05-06T03:43:40.385Z,85.90
2018-05-06T03:46:06.333Z,86.20
2018-05-06T03:48:32.250Z,86.20
2018-05-06T03:50:58.140Z,86.50
2018-05-06T03:53:24.048Z,86.10
2018-05-06T03:59:10.154Z,86.10
2018-05-06T04:01:36.812Z,86.30
2018-05-06T04:04:02.711Z,86.10
2018-05-06T04:06:29.338Z,86.90
2018-05-06T04:08:55.236Z,86.80
2018-05-06T04:11:21.122Z,86.70
2018-05-06T04:13:47.042Z,87.20
2018-05-06T04:16:12.945Z,87.30
2018-05-06T04:18:39.580Z,87.80
2018-05-06T04:21:06.207Z,86.80
2018-05-06T04:23:32.851Z,86.80
2018-05-06T04:25:59.492Z,86.40
2018-05-06T04:28:26.111Z,86.90
2018-05-06T04:30:52.016Z,86.90
2018-05-06T04:33:17.919Z,86.50
2018-05-06T04:35:43.817Z,86.70
2018-05-06T04:38:09.724Z,86.70
2018-05-06T04:40:35.612Z,86.40
2018-05-06T04:43:02.438Z,86.10
2018-05-06T04:45:28.324Z,86.00
2018-05-06T04:47:54.297Z,85.60
2018-05-06T04:50:20.231Z,85.40
2018-05-06T04:52:46.861Z,84.70
2018-05-06T04:55:12.759Z,84.70
2018-05-06T04:57:38.659Z,83.00
2018-05-06T05:00:04.549Z,82.70
2018-05-06T05:02:30.458Z,81.10
2018-05-06T05:04:57.083Z,67.50
2018-05-06T05:07:22.995Z,67.50
2018-05-06T05:09:48.880Z,63.60
2018-05-06T05:12:14.770Z,62.10
2018-05-06T05:14:40.673Z,62.50
2018-05-06T05:17:07.311Z,68.20
2018-05-06T05:19:33.967Z,69.20
2018-05-06T05:21:59.910Z,69.20
2018-05-06T05:24:25.817Z,69.10
2018-05-06T05:26:51.721Z,69.00
2018-05-06T05:29:18.355Z,68.10
2018-05-06T05:31:44.988Z,67.10
2018-05-06T05:34:11.612Z,67.90
2018-05-06T05:36:37.494Z,67.90
2018-05-06T05:39:03.681Z,67.40
2018-05-06T05:41:29.582Z,67.00
2018-05-06T05:43:56.297Z,67.70
2018-05-06T05:46:22.207Z,66.90
2018-05-06T05:48:48.140Z,66.30
2018-05-06T05:51:14.037Z,65.30
2018-05-06T05:53:39.947Z,65.40
2018-05-06T05:56:05.856Z,65.10
2018-05-06T05:58:31.732Z,64.00
2018-05-06T06:00:57.652Z,64.40
2018-05-06T06:03:23.532Z,62.70
2018-05-06T06:05:49.437Z,62.60
2018-05-06T06:08:15.348Z,60.50
2018-05-06T06:10:41.239Z,58.30
2018-05-06T06:13:07.700Z,57.60
2018-05-06T06:15:34.331Z,54.20
2018-05-06T06:18:00.976Z,53.00
2018-05-06T06:20:27.611Z,51.50
2018-05-06T06:22:54.238Z,50.50
2018-05-06T06:25:20.875Z,50.70
2018-05-06T06:27:47.497Z,48.20
2018-05-06T06:30:13.402Z,48.20
2018-05-06T06:32:39.281Z,47.10
2018-05-06T06:35:05.160Z,46.20
2018-05-06T06:37:31.057Z,46.80
2018-05-06T06:39:56.933Z,46.80
2018-05-06T06:42:22.833Z,44.40
2018-05-06T06:44:49.463Z,41.10
2018-05-06T06:47:15.347Z,41.10
2018-05-06T06:49:41.268Z,42.00
2018-05-06T06:52:07.157Z,41.20
2018-05-06T06:54:33.072Z,40.80
2018-05-06T06:56:58.953Z,40.80
2018-05-06T06:59:24.842Z,40.00
2018-05-06T07:01:50.736Z,40.00
2018-05-06T07:04:16.611Z,38.70
2018-05-06T07:06:42.519Z,38.50
2018-05-06T07:09:08.399Z,39.20
2018-05-06T07:11:34.291Z,38.70
2018-05-06T07:14:00.923Z,35.40
2018-05-06T07:16:27.570Z,33.40
2018-05-06T07:18:54.212Z,32.60
2018-05-06T07:21:20.844Z,32.40
2018-05-06T07:23:47.516Z,32.30
2018-05-06T07:26:13.422Z,32.30
2018-05-06T07:28:39.295Z,32.60
2018-05-06T07:31:05.189Z,32.90
2018-05-06T07:33:31.071Z,33.80
2018-05-06T07:35:57.752Z,31.50
2018-05-06T07:38:23.640Z,32.20
2018-05-06T07:40:49.528Z,31.30
2018-05-06T07:43:16.009Z,31.50
2018-05-06T07:45:41.932Z,32.40
2018-05-06T07:48:07.811Z,30.70
2018-05-06T07:50:33.729Z,31.00
2018-05-06T07:52:59.629Z,31.00
2018-05-06T07:55:25.530Z,31.60
2018-05-06T07:57:51.419Z,30.40
2018-05-06T08:00:17.330Z,29.20
2018-05-06T08:02:43.973Z,30.40
2018-05-06T08:05:09.862Z,30.30
2018-05-06T08:07:35.767Z,28.70
2018-05-06T08:10:01.643Z,30.30
2018-05-06T08:12:27.537Z,28.40
2018-05-06T08:14:54.174Z,28.10
2018-05-06T08:17:20.805Z,26.80
2018-05-06T08:19:46.709Z,26.80
2018-05-06T08:22:12.609Z,28.00
2018-05-06T08:24:38.498Z,26.60
2018-05-06T08:27:04.398Z,27.10
2018-05-06T08:29:31.036Z,26.80
2018-05-06T08:31:56.952Z,26.80
2018-05-06T08:34:23.573Z,25.40
2018-05-06T08:36:49.523Z,25.30
2018-05-06T08:39:16.145Z,26.20
2018-05-06T08:41:42.768Z,27.70
2018-05-06T08:44:08.668Z,27.50
2018-05-06T08:46:34.559Z,26.00
2018-05-06T08:49:00.460Z,26.10
2018-05-06T08:51:27.150Z,27.20
2018-05-06T08:53:53.712Z,26.50
2018-05-06T08:56:19.623Z,26.50
2018-05-06T08:58:45.499Z,25.10
2018-05-06T09:01:11.395Z,25.40
2018-05-06T09:03:38.197Z,25.10
2018-05-06T09:06:04.087Z,25.10
2018-05-06T09:08:30.036Z,24.50
2018-05-06T09:10:55.929Z,22.70
2018-05-06T09:13:21.878Z,23.50
2018-05-06T09:15:47.768Z,25.10
2018-05-06T09:18:13.670Z,23.90
2018-05-06T09:20:39.569Z,23.60
2018-05-06T09:23:06.219Z,23.20
2018-05-06T09:25:33.179Z,23.50
2018-05-06T09:27:59.793Z,23.70
2018-05-06T09:30:26.436Z,23.70
2018-05-06T09:32:53.110Z,23.80
2018-05-06T09:35:18.994Z,23.80
2018-05-06T09:37:45.715Z,24.40
2018-05-06T09:40:11.585Z,25.20
2018-05-06T09:42:37.466Z,24.40
2018-05-06T09:45:04.431Z,23.60
2018-05-06T09:47:30.314Z,23.60
2018-05-06T09:49:56.225Z,22.90
2018-05-06T09:52:22.127Z,22.10
2018-05-06T09:54:48.045Z,23.40
2018-05-06T09:57:13.941Z,23.40
2018-05-06T09:59:39.815Z,23.20
2018-05-06T10:02:05.712Z,23.80
2018-05-06T10:04:31.610Z,24.20
2018-05-06T10:06:57.511Z,24.40
2018-05-06T10:09:23.419Z,25.20
2018-05-06T10:11:50.066Z,25.30
2018-05-06T10:14:16.712Z,23.90
2018-05-06T10:16:42.595Z,23.90
2018-05-06T10:19:08.511Z,24.10
2018-05-06T10:21:36.092Z,21.90
2018-05-06T10:24:02.710Z,23.10
2018-05-06T10:26:28.641Z,23.10
2018-05-06T10:28:54.556Z,24.60
2018-05-06T10:31:20.437Z,25.90
2018-05-06T10:33:46.339Z,24.10
2018-05-06T10:36:12.212Z,25.20
2018-05-06T10:38:38.143Z,25.60
2018-05-06T10:41:04.030Z,25.20
2018-05-06T10:43:29.929Z,24.60
2018-05-06T10:45:55.934Z,25.70
2018-05-06T10:48:21.843Z,25.40
2018-05-06T10:50:49.114Z,25.20
2018-05-06T10:53:15.036Z,25.20
2018-05-06T10:55:40.934Z,25.40
2018-05-06T10:58:06.832Z,25.30
2018-05-06T11:00:32.737Z,24.70
2018-05-06T11:02:58.689Z,23.60
2018-05-06T11:05:28.605Z,25.90
2018-05-06T11:10:28.209Z,25.60
2018-05-06T11:12:53.966Z,25.90
2018-05-06T11:15:26.856Z,26.30
2018-05-06T11:17:52.830Z,26.80
2018-05-06T11:20:19.372Z,27.20
2018-05-06T11:22:45.531Z,27.20
2018-05-06T11:25:11.417Z,25.80
2018-05-06T11:27:37.338Z,26.30
2018-05-06T11:30:03.956Z,25.30
2018-05-06T11:32:29.873Z,25.50
2018-05-06T11:34:55.877Z,25.80
2018-05-06T11:37:21.800Z,26.40
2018-05-06T11:39:47.757Z,26.50
2018-05-06T11:42:13.648Z,25.10
2018-05-06T11:44:39.541Z,24.30
2018-05-06T11:47:05.434Z,24.60
2018-05-06T11:49:32.073Z,23.50
2018-05-06T11:51:58.735Z,23.80
2018-05-06T11:54:24.652Z,23.80
2018-05-06T11:56:50.560Z,25.00
2018-05-06T11:59:17.219Z,26.70
2018-05-06T12:01:43.976Z,26.70
2018-05-06T12:04:09.914Z,26.90
2018-05-06T12:06:35.804Z,27.30
2018-05-06T12:09:01.734Z,26.50
2018-05-06T12:11:27.629Z,26.20
2018-05-06T12:13:54.263Z,27.10
2018-05-06T12:16:20.939Z,27.90
2018-05-06T12:18:46.862Z,27.90
2018-05-06T12:21:12.753Z,27.80
2018-05-06T12:23:38.660Z,27.00
2018-05-06T12:26:05.299Z,25.80
2018-05-06T12:28:31.944Z,25.50
2018-05-06T12:30:57.830Z,25.40
2018-05-06T12:33:23.753Z,25.80
2018-05-06T12:35:49.674Z,25.90
2018-05-06T12:38:15.585Z,26.40
2018-05-06T12:40:41.497Z,26.00
2018-05-06T12:43:07.389Z,26.20
2018-05-06T12:45:33.282Z,26.40
2018-05-06T12:47:59.934Z,25.80
2018-05-06T12:50:25.856Z,25.80
2018-05-06T12:52:51.748Z,26.30
2018-05-06T12:55:18.440Z,27.10
2018-05-06T12:57:44.328Z,27.10
2018-05-06T13:00:10.225Z,26.70
2018-05-06T13:02:36.870Z,26.00
2018-05-06T13:05:03.498Z,27.40
2018-05-06T13:07:29.623Z,27.30
2018-05-06T13:09:55.532Z,27.40
2018-05-06T13:12:21.425Z,27.30
2018-05-06T13:14:47.338Z,27.00
2018-05-06T13:17:13.219Z,27.40
2018-05-06T13:19:39.846Z,27.60
2018-05-06T13:22:06.508Z,26.40
2018-05-06T13:24:32.397Z,26.40
2018-05-06T13:26:58.296Z,26.30
2018-05-06T13:29:24.232Z,27.60
2018-05-06T13:31:50.134Z,28.00
2018-05-06T13:34:16.047Z,27.80
2018-05-06T13:36:42.034Z,27.30
2018-05-06T13:39:07.885Z,27.50
2018-05-06T13:41:33.784Z,27.70
2018-05-06T13:43:59.689Z,28.50
2018-05-06T13:46:25.597Z,28.10
2018-05-06T13:48:52.226Z,27.40
2018-05-06T13:51:18.879Z,28.00
2018-05-06T13:53:45.519Z,27.00
2018-05-06T13:56:11.435Z,27.00
2018-05-06T13:58:38.084Z,26.90
2018-05-06T14:01:03.996Z,26.90
2018-05-06T14:03:30.646Z,27.80
2018-05-06T14:05:56.540Z,27.80
2018-05-06T14:08:23.184Z,29.50
2018-05-06T14:10:49.868Z,29.10
2018-05-06T14:13:15.765Z,29.10
2018-05-06T14:15:41.683Z,28.10
2018-05-06T14:18:07.570Z,27.70
2018-05-06T14:20:33.478Z,28.60
2018-05-06T14:22:59.400Z,28.50
2018-05-06T14:25:25.291Z,28.40
2018-05-06T14:27:51.188Z,27.90
2018-05-06T14:30:17.092Z,28.50
2018-05-06T14:32:43.720Z,28.70
2018-05-06T14:35:10.382Z,28.00
2018-05-06T14:37:36.279Z,28.00
2018-05-06T14:40:03.009Z,26.80
2018-05-06T14:42:28.909Z,26.80
2018-05-06T14:44:54.812Z,27.50
2018-05-06T14:47:32.867Z,26.90
2018-05-06T14:49:58.754Z,28.40
2018-05-06T14:52:24.669Z,28.40
2018-05-06T14:54:50.589Z,28.90
2018-05-06T14:57:16.496Z,29.00
2018-05-06T14:59:42.412Z,29.00
2018-05-06T15:02:08.317Z,28.50
2018-05-06T15:04:34.260Z,28.80
2018-05-06T15:07:00.148Z,29.00
2018-05-06T15:09:26.068Z,28.50
2018-05-06T15:11:52.008Z,28.90
2018-05-06T15:14:30.341Z,28.90
2018-05-06T15:16:56.260Z,28.70
2018-05-06T15:19:22.149Z,29.20
2018-05-06T15:24:42.634Z,29.30
2018-05-06T15:27:09.283Z,29.70
2018-05-06T15:29:35.932Z,29.70
2018-05-06T15:32:01.816Z,29.70
2018-05-06T15:34:27.723Z,29.40
2018-05-06T15:36:53.618Z,29.60
2018-05-06T15:39:19.545Z,29.80
2018-05-06T15:41:45.452Z,29.70
2018-05-06T15:44:11.346Z,30.10
2018-05-06T15:46:38.043Z,30.80
2018-05-06T15:49:03.928Z,30.80
2018-05-06T15:51:29.834Z,31.20
2018-05-06T15:53:55.744Z,30.90
2018-05-06T15:56:22.474Z,31.70
2018-05-06T15:58:48.869Z,31.70
2018-05-06T16:01:14.769Z,32.20
2018-05-06T16:03:53.247Z,32.70
2018-05-06T16:06:19.889Z,32.60
2018-05-06T16:08:46.548Z,32.70
2018-05-06T16:11:12.436Z,32.70
2018-05-06T16:13:39.290Z,33.40
2018-05-06T16:16:05.936Z,33.80
2018-05-06T16:18:31.880Z,33.70
2018-05-06T16:20:57.731Z,33.60
2018-05-06T16:23:23.648Z,33.90
2018-05-06T16:25:49.543Z,34.40
2018-05-06T16:28:15.493Z,34.60
2018-05-06T16:30:41.373Z,34.80
2018-05-06T16:33:07.331Z,35.30
2018-05-06T16:35:33.228Z,35.80
2018-05-06T16:37:59.184Z,35.90
2018-05-06T16:40:25.029Z,36.00
2018-05-06T16:42:51.666Z,35.90
2018-05-06T16:45:18.321Z,36.10
2018-05-06T16:47:44.680Z,36.10
2018-05-06T16:50:10.578Z,36.30
2018-05-06T16:52:36.514Z,36.30
2018-05-06T16:55:02.423Z,36.40
2018-05-06T16:57:28.365Z,36.60
2018-05-06T16:59:54.289Z,36.70
2018-05-06T17:02:20.181Z,36.60
2018-05-06T17:04:46.093Z,36.70
2018-05-06T17:07:12.023Z,37.10
2018-05-06T17:09:37.948Z,37.10
2018-05-06T17:12:03.825Z,37.20
2018-05-06T17:14:29.761Z,37.30
2018-05-06T17:16:56.397Z,37.60
2018-05-06T17:19:23.049Z,37.70
2018-05-06T17:21:49.181Z,37.70
2018-05-06T17:24:15.093Z,37.90
2018-05-06T17:26:41.759Z,38.70
2018-05-06T17:29:07.696Z,38.60
2018-05-06T17:31:33.592Z,38.80
2018-05-06T17:33:59.490Z,38.70
2018-05-06T17:36:25.871Z,38.90
2018-05-06T17:38:51.781Z,40.10
2018-05-06T17:41:17.728Z,39.50
2018-05-06T17:43:43.632Z,39.50
2018-05-06T17:46:09.526Z,39.70
2018-05-06T17:48:35.453Z,39.70
2018-05-06T17:51:01.379Z,39.90
2018-05-06T17:53:27.501Z,40.00
2018-05-06T17:55:53.552Z,40.10
2018-05-06T17:58:19.377Z,40.50
2018-05-06T18:00:45.306Z,40.80
2018-05-06T18:03:11.251Z,41.40
2018-05-06T18:05:37.336Z,41.70
2018-05-06T18:08:03.228Z,42.00
2018-05-06T18:10:29.126Z,42.30
2018-05-06T18:12:55.052Z,42.60
2018-05-06T18:15:20.960Z,42.80
2018-05-06T18:17:47.702Z,43.50
2018-05-06T18:20:14.396Z,43.70
2018-05-06T18:22:40.403Z,43.70
2018-05-06T18:25:06.741Z,43.80
2018-05-06T18:27:32.679Z,44.10
2018-05-06T18:29:58.640Z,44.40
2018-05-06T18:32:25.283Z,44.80
2018-05-06T18:34:51.280Z,44.70
2018-05-06T18:37:17.236Z,45.00
2018-05-06T18:39:43.443Z,45.50
2018-05-06T18:42:09.387Z,45.70
2018-05-06T18:44:35.320Z,46.10
2018-05-06T18:47:01.322Z,46.60
2018-05-06T18:49:27.177Z,46.90
2018-05-06T18:51:53.169Z,47.40
2018-05-06T18:54:19.149Z,47.60
2018-05-06T18:56:45.092Z,47.90
2018-05-06T18:59:11.892Z,48.40
2018-05-06T19:01:37.871Z,48.40
2018-05-06T19:04:03.874Z,48.70
2018-05-06T19:06:29.801Z,48.80
2018-05-06T19:08:56.504Z,49.30
2018-05-06T19:11:22.514Z,49.30
2018-05-06T19:13:48.432Z,49.60
2018-05-06T19:16:14.342Z,49.80
2018-05-06T19:18:40.281Z,50.20
2018-05-06T19:21:06.295Z,50.70
2018-05-06T19:23:32.540Z,50.90
2018-05-06T19:25:58.486Z,51.20
2018-05-06T19:28:25.263Z,52.10
2018-05-06T19:30:51.192Z,52.10
2018-05-06T19:33:17.101Z,52.50
2018-05-06T19:35:43.017Z,52.30
2018-05-06T19:38:08.937Z,52.40
2018-05-06T19:40:34.833Z,52.30
2018-05-06T19:43:01.500Z,52.90
2018-05-06T19:45:27.392Z,52.90
2018-05-06T19:47:53.340Z,53.10
2018-05-06T19:50:19.524Z,53.10
2018-05-06T19:52:45.526Z,53.00
2018-05-06T19:55:11.434Z,53.30
2018-05-06T19:57:37.354Z,53.50
2018-05-06T20:00:03.320Z,53.80
2018-05-06T20:02:29.217Z,54.20
2018-05-06T20:04:55.148Z,54.70
2018-05-06T20:07:21.089Z,54.80
2018-05-06T20:09:47.035Z,55.60
2018-05-06T20:12:12.971Z,56.80
2018-05-06T20:14:38.879Z,55.90
2018-05-06T20:17:04.868Z,56.20
2018-05-06T20:19:31.533Z,57.40
2018-05-06T20:21:57.572Z,56.80
2018-05-06T20:24:23.445Z,57.00
2018-05-06T20:26:49.374Z,57.20
2018-05-06T20:29:16.060Z,57.40
2018-05-06T20:31:41.986Z,57.40
2018-05-06T20:34:07.916Z,58.20
2018-05-06T20:36:33.810Z,57.80
2018-05-06T20:38:59.712Z,57.50
2018-05-06T20:41:26.466Z,57.70
2018-05-06T20:43:52.343Z,57.70
2018-05-06T20:46:18.257Z,57.70
2018-05-06T20:48:44.218Z,57.80
2018-05-06T20:51:11.280Z,58.10
2018-05-06T20:53:37.263Z,58.10
2018-05-06T20:56:03.154Z,58.60
2018-05-06T20:58:29.064Z,58.90
2018-05-06T21:00:54.957Z,59.10
2018-05-06T21:03:20.846Z,59.60
2018-05-06T21:05:46.754Z,60.40
2018-05-06T21:08:12.664Z,60.80
2018-05-06T21:10:38.585Z,61.40
2018-05-06T21:13:04.484Z,62.00
2018-05-06T21:15:30.387Z,62.00
2018-05-06T21:17:56.295Z,61.70
2018-05-06T21:20:22.195Z,61.30
2018-05-06T21:22:48.854Z,60.90
2018-05-06T21:25:14.765Z,60.90
2018-05-06T21:27:40.697Z,60.90
2018-05-06T21:30:06.620Z,61.00
2018-05-06T21:32:32.524Z,61.40
2018-05-06T21:34:59.176Z,61.70
2018-05-06T21:37:25.081Z,61.70
2018-05-06T21:39:51.760Z,61.40
2018-05-06T21:42:17.680Z,61.40
2018-05-06T21:44:43.619Z,60.90
2018-05-06T21:47:09.542Z,61.00
2018-05-06T21:49:35.464Z,60.90
2018-05-06T21:52:01.420Z,61.70
2018-05-06T21:54:28.105Z,62.30
2018-05-06T21:56:54.037Z,62.30
2018-05-06T21:59:19.994Z,62.50
2018-05-06T22:01:45.945Z,62.30
2018-05-06T22:04:11.897Z,63.50
2018-05-06T22:06:37.812Z,62.90
2018-05-06T22:09:03.713Z,63.30
2018-05-06T22:11:29.713Z,64.00
2018-05-06T22:13:55.629Z,64.20
2018-05-06T22:16:22.283Z,64.60
2018-05-06T22:18:48.240Z,64.60
2018-05-06T22:21:14.173Z,65.10
2018-05-06T22:23:40.167Z,65.10
2018-05-06T22:26:06.115Z,65.30
2018-05-06T22:28:32.039Z,66.10
2018-05-06T22:30:57.992Z,66.10
2018-05-06T22:33:23.886Z,66.60
2018-05-06T22:35:49.849Z,67.30
2018-05-06T22:38:15.764Z,68.40
2018-05-06T22:40:42.425Z,70.40
2018-05-06T22:43:08.386Z,70.30
2018-05-06T22:45:34.315Z,71.60
2018-05-06T22:48:00.205Z,72.50
2018-05-06T22:50:26.114Z,73.40
2018-05-06T22:52:51.992Z,75.10
2018-05-06T22:55:17.947Z,75.20
2018-05-06T22:57:43.859Z,76.40
2018-05-06T23:00:09.724Z,77.10
2018-05-06T23:02:35.654Z,77.50
2018-05-06T23:05:01.557Z,78.40
2018-05-06T23:07:27.456Z,79.30
2018-05-06T23:09:53.372Z,79.50
2018-05-06T23:12:19.275Z,80.30
2018-05-06T23:14:45.915Z,80.20
2018-05-06T23:17:12.553Z,80.40
2018-05-06T23:19:39.193Z,80.10
2018-05-06T23:22:05.836Z,79.80
2018-05-06T23:24:31.875Z,79.80
2018-05-06T23:26:57.774Z,79.30
2018-05-06T23:29:23.751Z,79.00
2018-05-06T23:31:49.565Z,79.80
2018-05-06T23:34:15.469Z,80.00
2018-05-06T23:36:41.359Z,80.70
2018-05-06T23:39:07.257Z,80.90
2018-05-06T23:41:33.909Z,80.40
2018-05-06T23:44:00.552Z,80.80
2018-05-06T23:46:26.486Z,80.80
2018-05-06T23:48:52.364Z,80.10
2018-05-06T23:51:18.252Z,80.80
2018-05-06T23:53:44.154Z,81.00
2018-05-06T23:56:10.076Z,81.00
2018-05-06T23:58:35.971Z,81.30
